sensor_id;sensor_type;location;lat;lon;timestamp;pressure;altitude;pressure_sealevel;temperature;humidity
62025;BME280;47978;49.118;12.146;2023-02-24T00:03:27;96998.13;;;7.28;97.46
62025;BME280;47978;49.118;12.146;2023-02-24T00:07:28;96991.28;;;7.25;97.30
62025;BME280;47978;49.118;12.146;2023-02-24T00:11:29;96983.84;;;7.26;96.99
62025;BME280;47978;49.118;12.146;2023-02-24T00:15:32;96987.59;;;7.16;97.23
62025;BME280;47978;49.118;12.146;2023-02-24T00:19:34;96979.06;;;7.17;97.86
62025;BME280;47978;49.118;12.146;2023-02-24T00:23:36;96973.03;;;7.15;98.05
62025;BME280;47978;49.118;12.146;2023-02-24T00:27:37;96966.31;;;7.03;98.59
62025;BME280;47978;49.118;12.146;2023-02-24T00:31:40;96965.16;;;7.09;98.25
62025;BME280;47978;49.118;12.146;2023-02-24T00:35:42;96960.53;;;7.04;98.65
62025;BME280;47978;49.118;12.146;2023-02-24T00:39:43;96952.34;;;6.99;98.83
62025;BME280;47978;49.118;12.146;2023-02-24T00:43:45;96947.00;;;7.08;98.49
62025;BME280;47978;49.118;12.146;2023-02-24T00:47:48;96951.41;;;7.09;98.52
62025;BME280;47978;49.118;12.146;2023-02-24T00:51:49;96958.47;;;7.15;98.46
62025;BME280;47978;49.118;12.146;2023-02-24T00:55:57;96950.03;;;7.25;97.42
62025;BME280;47978;49.118;12.146;2023-02-24T00:59:58;96941.81;;;7.25;97.78
62025;BME280;47978;49.118;12.146;2023-02-24T01:04:02;96940.31;;;7.14;98.03
62025;BME280;47978;49.118;12.146;2023-02-24T01:08:04;96940.56;;;7.17;98.02
62025;BME280;47978;49.118;12.146;2023-02-24T01:12:06;96935.84;;;7.37;97.76
62025;BME280;47978;49.118;12.146;2023-02-24T01:16:07;96934.81;;;7.52;97.08
62025;BME280;47978;49.118;12.146;2023-02-24T01:20:11;96922.47;;;7.49;97.08
62025;BME280;47978;49.118;12.146;2023-02-24T01:24:12;96927.75;;;7.27;97.59
62025;BME280;47978;49.118;12.146;2023-02-24T01:28:14;96925.97;;;7.17;98.50
62025;BME280;47978;49.118;12.146;2023-02-24T01:32:16;96908.16;;;7.14;98.97
62025;BME280;47978;49.118;12.146;2023-02-24T01:36:20;96903.69;;;7.18;98.01
62025;BME280;47978;49.118;12.146;2023-02-24T01:40:23;96893.56;;;7.14;98.42
62025;BME280;47978;49.118;12.146;2023-02-24T01:48:44;96895.97;;;7.02;98.28
62025;BME280;47978;49.118;12.146;2023-02-24T01:52:47;96898.66;;;7.07;98.34
62025;BME280;47978;49.118;12.146;2023-02-24T01:56:51;96899.53;;;7.02;98.19
62025;BME280;47978;49.118;12.146;2023-02-24T02:00:52;96879.69;;;7.05;98.09
62025;BME280;47978;49.118;12.146;2023-02-24T02:04:55;96884.09;;;7.06;97.41
62025;BME280;47978;49.118;12.146;2023-02-24T02:08:58;96869.00;;;7.04;97.68
62025;BME280;47978;49.118;12.146;2023-02-24T02:13:00;96869.16;;;6.93;97.54
62025;BME280;47978;49.118;12.146;2023-02-24T02:17:05;96862.03;;;6.92;97.60
62025;BME280;47978;49.118;12.146;2023-02-24T02:25:31;96864.78;;;6.92;97.46
62025;BME280;47978;49.118;12.146;2023-02-24T02:29:45;96866.09;;;7.14;96.60
62025;BME280;47978;49.118;12.146;2023-02-24T02:34:05;96867.47;;;6.97;97.03
62025;BME280;47978;49.118;12.146;2023-02-24T02:38:09;96853.25;;;6.90;97.31
62025;BME280;47978;49.118;12.146;2023-02-24T02:42:15;96851.66;;;6.89;97.42
62025;BME280;47978;49.118;12.146;2023-02-24T02:46:23;96853.72;;;6.97;96.89
62025;BME280;47978;49.118;12.146;2023-02-24T02:50:29;96845.53;;;6.92;97.46
62025;BME280;47978;49.118;12.146;2023-02-24T02:54:34;96839.53;;;6.90;97.28
62025;BME280;47978;49.118;12.146;2023-02-24T02:58:39;96834.16;;;6.99;96.77
62025;BME280;47978;49.118;12.146;2023-02-24T03:02:44;96841.75;;;6.88;97.42
62025;BME280;47978;49.118;12.146;2023-02-24T03:06:48;96844.41;;;6.93;97.48
62025;BME280;47978;49.118;12.146;2023-02-24T03:10:51;96840.06;;;6.92;97.16
62025;BME280;47978;49.118;12.146;2023-02-24T03:14:55;96836.25;;;6.88;97.41
62025;BME280;47978;49.118;12.146;2023-02-24T03:19:01;96830.16;;;6.91;97.25
62025;BME280;47978;49.118;12.146;2023-02-24T03:23:06;96827.25;;;6.83;97.76
62025;BME280;47978;49.118;12.146;2023-02-24T03:27:11;96830.47;;;6.90;97.54
62025;BME280;47978;49.118;12.146;2023-02-24T03:31:14;96822.00;;;6.86;97.38
62025;BME280;47978;49.118;12.146;2023-02-24T03:35:20;96824.44;;;7.07;96.88
62025;BME280;47978;49.118;12.146;2023-02-24T03:39:23;96822.34;;;6.98;96.74
62025;BME280;47978;49.118;12.146;2023-02-24T03:43:27;96805.41;;;6.91;97.16
62025;BME280;47978;49.118;12.146;2023-02-24T03:47:30;96817.47;;;6.95;97.21
62025;BME280;47978;49.118;12.146;2023-02-24T03:51:32;96820.34;;;7.04;95.83
62025;BME280;47978;49.118;12.146;2023-02-24T03:55:36;96819.69;;;6.93;96.90
62025;BME280;47978;49.118;12.146;2023-02-24T03:59:44;96819.16;;;6.91;97.50
62025;BME280;47978;49.118;12.146;2023-02-24T04:03:56;96821.16;;;6.86;97.72
62025;BME280;47978;49.118;12.146;2023-02-24T04:08:01;96809.69;;;6.84;97.98
62025;BME280;47978;49.118;12.146;2023-02-24T04:12:05;96805.16;;;6.74;98.64
62025;BME280;47978;49.118;12.146;2023-02-24T04:16:10;96812.13;;;6.85;98.25
62025;BME280;47978;49.118;12.146;2023-02-24T04:20:13;96826.97;;;7.03;97.58
62025;BME280;47978;49.118;12.146;2023-02-24T04:24:16;96815.66;;;7.05;98.06
62025;BME280;47978;49.118;12.146;2023-02-24T04:28:20;96800.75;;;6.92;98.01
62025;BME280;47978;49.118;12.146;2023-02-24T04:32:23;96796.69;;;6.89;98.53
62025;BME280;47978;49.118;12.146;2023-02-24T04:36:26;96791.53;;;6.83;98.89
62025;BME280;47978;49.118;12.146;2023-02-24T04:40:27;96789.38;;;6.98;98.55
62025;BME280;47978;49.118;12.146;2023-02-24T04:44:30;96780.41;;;6.93;97.89
62025;BME280;47978;49.118;12.146;2023-02-24T04:48:31;96771.94;;;6.89;98.27
62025;BME280;47978;49.118;12.146;2023-02-24T04:52:33;96780.69;;;6.91;98.15
62025;BME280;47978;49.118;12.146;2023-02-24T04:56:35;96765.53;;;6.94;98.17
62025;BME280;47978;49.118;12.146;2023-02-24T05:00:38;96773.75;;;7.13;96.89
62025;BME280;47978;49.118;12.146;2023-02-24T05:04:40;96771.47;;;7.01;97.35
62025;BME280;47978;49.118;12.146;2023-02-24T05:08:41;96758.41;;;6.93;97.96
62025;BME280;47978;49.118;12.146;2023-02-24T05:12:43;96754.34;;;6.90;98.10
62025;BME280;47978;49.118;12.146;2023-02-24T05:16:46;96745.47;;;6.93;98.10
62025;BME280;47978;49.118;12.146;2023-02-24T05:20:48;96749.16;;;6.89;98.33
62025;BME280;47978;49.118;12.146;2023-02-24T05:24:50;96741.44;;;7.05;97.29
62025;BME280;47978;49.118;12.146;2023-02-24T05:28:52;96736.66;;;7.10;97.29
62025;BME280;47978;49.118;12.146;2023-02-24T05:32:55;96732.78;;;6.97;97.60
62025;BME280;47978;49.118;12.146;2023-02-24T05:36:57;96725.72;;;6.91;97.96
62025;BME280;47978;49.118;12.146;2023-02-24T05:41:02;96725.97;;;6.95;98.22
62025;BME280;47978;49.118;12.146;2023-02-24T05:45:04;96721.78;;;6.97;98.03
62025;BME280;47978;49.118;12.146;2023-02-24T05:49:09;96711.41;;;6.94;98.06
62025;BME280;47978;49.118;12.146;2023-02-24T05:53:12;96705.09;;;7.08;97.48
62025;BME280;47978;49.118;12.146;2023-02-24T05:57:14;96706.41;;;6.96;97.81
62025;BME280;47978;49.118;12.146;2023-02-24T06:01:16;96710.34;;;6.90;98.21
62025;BME280;47978;49.118;12.146;2023-02-24T06:05:18;96716.16;;;6.89;98.18
62025;BME280;47978;49.118;12.146;2023-02-24T06:09:21;96706.47;;;6.91;98.42
62025;BME280;47978;49.118;12.146;2023-02-24T06:13:22;96709.47;;;6.95;98.07
62025;BME280;47978;49.118;12.146;2023-02-24T06:17:23;96710.88;;;6.92;98.03
62025;BME280;47978;49.118;12.146;2023-02-24T06:21:26;96708.13;;;6.92;98.08
62025;BME280;47978;49.118;12.146;2023-02-24T06:25:28;96705.91;;;6.94;98.24
62025;BME280;47978;49.118;12.146;2023-02-24T06:29:29;96717.41;;;6.96;98.13
62025;BME280;47978;49.118;12.146;2023-02-24T06:33:31;96714.66;;;6.96;97.91
62025;BME280;47978;49.118;12.146;2023-02-24T06:37:33;96701.50;;;6.93;97.74
62025;BME280;47978;49.118;12.146;2023-02-24T06:41:35;96699.88;;;6.92;98.00
62025;BME280;47978;49.118;12.146;2023-02-24T06:45:36;96706.75;;;7.09;97.54
62025;BME280;47978;49.118;12.146;2023-02-24T06:49:37;96697.78;;;7.03;97.38
62025;BME280;47978;49.118;12.146;2023-02-24T06:53:40;96700.63;;;7.12;97.38
62025;BME280;47978;49.118;12.146;2023-02-24T06:57:42;96680.19;;;7.32;96.75
62025;BME280;47978;49.118;12.146;2023-02-24T07:01:43;96691.56;;;7.25;97.42
62025;BME280;47978;49.118;12.146;2023-02-24T07:05:45;96699.63;;;7.35;96.89
62025;BME280;47978;49.118;12.146;2023-02-24T07:09:48;96694.16;;;7.49;96.65
62025;BME280;47978;49.118;12.146;2023-02-24T07:13:50;96687.13;;;7.43;96.37
62025;BME280;47978;49.118;12.146;2023-02-24T07:17:52;96692.50;;;7.48;96.88
62025;BME280;47978;49.118;12.146;2023-02-24T07:21:54;96696.06;;;7.62;95.75
62025;BME280;47978;49.118;12.146;2023-02-24T07:25:57;96689.88;;;7.43;96.63
62025;BME280;47978;49.118;12.146;2023-02-24T07:29:59;96682.34;;;7.49;97.12
62025;BME280;47978;49.118;12.146;2023-02-24T07:34:00;96678.13;;;7.51;97.15
62025;BME280;47978;49.118;12.146;2023-02-24T07:38:02;96680.25;;;7.68;97.02
62025;BME280;47978;49.118;12.146;2023-02-24T07:42:05;96667.44;;;7.77;96.50
62025;BME280;47978;49.118;12.146;2023-02-24T07:46:06;96672.84;;;8.05;95.42
62025;BME280;47978;49.118;12.146;2023-02-24T07:50:09;96678.97;;;8.02;95.44
62025;BME280;47978;49.118;12.146;2023-02-24T07:54:10;96673.06;;;8.08;95.89
62025;BME280;47978;49.118;12.146;2023-02-24T07:58:13;96670.19;;;8.36;94.64
62025;BME280;47978;49.118;12.146;2023-02-24T08:02:14;96664.16;;;8.48;94.13
62025;BME280;47978;49.118;12.146;2023-02-24T08:06:16;96663.91;;;8.58;92.87
62025;BME280;47978;49.118;12.146;2023-02-24T08:10:18;96652.31;;;8.70;92.74
62025;BME280;47978;49.118;12.146;2023-02-24T08:14:21;96648.22;;;8.90;90.81
62025;BME280;47978;49.118;12.146;2023-02-24T08:18:23;96643.56;;;8.99;90.10
62025;BME280;47978;49.118;12.146;2023-02-24T08:22:24;96649.94;;;9.08;88.93
62025;BME280;47978;49.118;12.146;2023-02-24T08:26:26;96643.56;;;8.99;89.78
62025;BME280;47978;49.118;12.146;2023-02-24T08:30:29;96642.47;;;9.09;89.54
62025;BME280;47978;49.118;12.146;2023-02-24T08:34:30;96643.38;;;9.27;87.50
62025;BME280;47978;49.118;12.146;2023-02-24T08:38:33;96632.13;;;9.14;88.67
62025;BME280;47978;49.118;12.146;2023-02-24T08:42:34;96631.19;;;9.28;87.68
62025;BME280;47978;49.118;12.146;2023-02-24T08:46:37;96627.84;;;9.39;87.50
62025;BME280;47978;49.118;12.146;2023-02-24T08:50:40;96624.91;;;9.44;87.60
62025;BME280;47978;49.118;12.146;2023-02-24T08:54:41;96619.59;;;9.48;86.44
62025;BME280;47978;49.118;12.146;2023-02-24T08:58:43;96620.72;;;9.56;87.10
62025;BME280;47978;49.118;12.146;2023-02-24T09:02:46;96620.75;;;9.64;86.61
62025;BME280;47978;49.118;12.146;2023-02-24T09:06:48;96611.88;;;9.85;86.34
62025;BME280;47978;49.118;12.146;2023-02-24T09:10:54;96616.72;;;9.71;85.25
62025;BME280;47978;49.118;12.146;2023-02-24T09:14:56;96609.91;;;9.85;84.23
62025;BME280;47978;49.118;12.146;2023-02-24T09:18:59;96602.13;;;9.96;84.97
62025;BME280;47978;49.118;12.146;2023-02-24T09:23:00;96603.91;;;10.18;83.49
62025;BME280;47978;49.118;12.146;2023-02-24T09:27:02;96601.78;;;10.24;82.22
62025;BME280;47978;49.118;12.146;2023-02-24T09:31:03;96599.72;;;10.29;82.91
62025;BME280;47978;49.118;12.146;2023-02-24T09:35:07;96587.19;;;10.41;82.50
62025;BME280;47978;49.118;12.146;2023-02-24T09:39:08;96571.38;;;10.67;80.55
62025;BME280;47978;49.118;12.146;2023-02-24T09:43:11;96574.09;;;10.76;78.81
62025;BME280;47978;49.118;12.146;2023-02-24T09:47:14;96579.56;;;10.93;78.72
62025;BME280;47978;49.118;12.146;2023-02-24T09:51:17;96583.91;;;10.56;78.52
62025;BME280;47978;49.118;12.146;2023-02-24T09:55:22;96576.94;;;10.32;80.08
62025;BME280;47978;49.118;12.146;2023-02-24T09:59:24;96573.88;;;10.08;81.42
62025;BME280;47978;49.118;12.146;2023-02-24T10:03:31;96572.56;;;10.05;81.45
62025;BME280;47978;49.118;12.146;2023-02-24T10:07:35;96568.50;;;10.11;80.54
62025;BME280;47978;49.118;12.146;2023-02-24T10:11:39;96563.09;;;10.24;80.87
62025;BME280;47978;49.118;12.146;2023-02-24T10:15:41;96551.09;;;10.37;80.11
62025;BME280;47978;49.118;12.146;2023-02-24T10:19:44;96539.00;;;10.68;78.83
62025;BME280;47978;49.118;12.146;2023-02-24T10:23:50;96536.63;;;10.96;79.34
62025;BME280;47978;49.118;12.146;2023-02-24T10:27:57;96531.38;;;11.33;77.64
62025;BME280;47978;49.118;12.146;2023-02-24T10:32:04;96524.78;;;11.46;76.35
62025;BME280;47978;49.118;12.146;2023-02-24T10:36:09;96524.06;;;11.28;75.93
62025;BME280;47978;49.118;12.146;2023-02-24T10:40:13;96511.41;;;11.18;75.58
62025;BME280;47978;49.118;12.146;2023-02-24T10:44:21;96502.03;;;11.11;75.58
62025;BME280;47978;49.118;12.146;2023-02-24T10:48:23;96500.13;;;11.02;75.93
62025;BME280;47978;49.118;12.146;2023-02-24T10:52:42;96491.56;;;10.87;75.88
62025;BME280;47978;49.118;12.146;2023-02-24T10:56:46;96488.63;;;10.92;76.01
62025;BME280;47978;49.118;12.146;2023-02-24T11:00:48;96484.00;;;11.05;75.65
62025;BME280;47978;49.118;12.146;2023-02-24T11:04:51;96474.31;;;10.90;76.68
62025;BME280;47978;49.118;12.146;2023-02-24T11:08:55;96478.66;;;10.61;77.47
62025;BME280;47978;49.118;12.146;2023-02-24T11:12:58;96467.53;;;10.40;78.36
62025;BME280;47978;49.118;12.146;2023-02-24T11:17:14;96461.81;;;10.54;78.56
62025;BME280;47978;49.118;12.146;2023-02-24T11:21:18;96450.97;;;10.40;77.67
62025;BME280;47978;49.118;12.146;2023-02-24T11:25:22;96440.22;;;10.39;78.05
62025;BME280;47978;49.118;12.146;2023-02-24T11:29:36;96438.03;;;10.62;77.98
62025;BME280;47978;49.118;12.146;2023-02-24T11:33:43;96430.63;;;10.74;76.85
62025;BME280;47978;49.118;12.146;2023-02-24T11:37:47;96424.66;;;10.64;77.24
62025;BME280;47978;49.118;12.146;2023-02-24T11:41:55;96410.66;;;10.39;77.00
62025;BME280;47978;49.118;12.146;2023-02-24T11:46:01;96405.16;;;10.13;77.36
62025;BME280;47978;49.118;12.146;2023-02-24T11:50:13;96396.72;;;10.18;79.21
62025;BME280;47978;49.118;12.146;2023-02-24T11:54:18;96383.53;;;10.24;77.47
62025;BME280;47978;49.118;12.146;2023-02-24T11:58:20;96362.97;;;10.51;77.94
62025;BME280;47978;49.118;12.146;2023-02-24T12:02:26;96363.09;;;10.54;77.17
62025;BME280;47978;49.118;12.146;2023-02-24T12:06:34;96355.38;;;10.69;77.69
62025;BME280;47978;49.118;12.146;2023-02-24T12:10:38;96350.50;;;10.66;77.04
62025;BME280;47978;49.118;12.146;2023-02-24T12:14:41;96340.50;;;10.52;77.56
62025;BME280;47978;49.118;12.146;2023-02-24T12:18:49;96333.94;;;10.36;77.95
62025;BME280;47978;49.118;12.146;2023-02-24T12:22:52;96326.66;;;10.23;77.84
62025;BME280;47978;49.118;12.146;2023-02-24T12:26:57;96322.28;;;10.22;78.20
62025;BME280;47978;49.118;12.146;2023-02-24T12:31:05;96318.69;;;10.21;78.95
62025;BME280;47978;49.118;12.146;2023-02-24T12:35:10;96314.94;;;10.26;77.49
62025;BME280;47978;49.118;12.146;2023-02-24T12:39:16;96317.97;;;10.03;80.03
62025;BME280;47978;49.118;12.146;2023-02-24T12:43:21;96311.66;;;10.03;81.17
62025;BME280;47978;49.118;12.146;2023-02-24T12:47:26;96299.66;;;9.90;82.09
62025;BME280;47978;49.118;12.146;2023-02-24T12:51:33;96299.16;;;9.97;82.81
62025;BME280;47978;49.118;12.146;2023-02-24T12:55:39;96292.97;;;10.00;83.33
62025;BME280;47978;49.118;12.146;2023-02-24T12:59:44;96292.53;;;9.89;82.68
62025;BME280;47978;49.118;12.146;2023-02-24T13:03:53;96269.63;;;9.88;83.63
62025;BME280;47978;49.118;12.146;2023-02-24T13:08:07;96273.75;;;9.74;84.31
62025;BME280;47978;49.118;12.146;2023-02-24T13:12:12;96271.81;;;9.74;84.73
62025;BME280;47978;49.118;12.146;2023-02-24T13:16:25;96256.91;;;9.66;84.42
62025;BME280;47978;49.118;12.146;2023-02-24T13:20:28;96253.25;;;9.83;84.83
62025;BME280;47978;49.118;12.146;2023-02-24T13:24:31;96248.94;;;10.03;83.66
62025;BME280;47978;49.118;12.146;2023-02-24T13:28:33;96239.16;;;10.06;83.11
62025;BME280;47978;49.118;12.146;2023-02-24T13:32:35;96239.50;;;10.04;83.36
62025;BME280;47978;49.118;12.146;2023-02-24T13:36:44;96229.84;;;10.19;82.50
62025;BME280;47978;49.118;12.146;2023-02-24T13:40:47;96222.50;;;10.23;80.83
62025;BME280;47978;49.118;12.146;2023-02-24T13:44:51;96226.28;;;10.10;82.46
62025;BME280;47978;49.118;12.146;2023-02-24T13:49:02;96213.09;;;10.16;81.90
62025;BME280;47978;49.118;12.146;2023-02-24T13:53:11;96199.50;;;10.10;81.43
62025;BME280;47978;49.118;12.146;2023-02-24T13:57:24;96192.53;;;10.34;81.56
62025;BME280;47978;49.118;12.146;2023-02-24T14:01:43;96188.69;;;10.68;80.46
62025;BME280;47978;49.118;12.146;2023-02-24T14:05:45;96177.13;;;10.87;78.41
62025;BME280;47978;49.118;12.146;2023-02-24T14:09:49;96177.94;;;10.88;78.41
62025;BME280;47978;49.118;12.146;2023-02-24T14:13:53;96167.97;;;10.74;78.76
62025;BME280;47978;49.118;12.146;2023-02-24T14:17:56;96166.72;;;10.84;78.53
62025;BME280;47978;49.118;12.146;2023-02-24T14:21:58;96154.25;;;10.45;80.10
62025;BME280;47978;49.118;12.146;2023-02-24T14:26:00;96143.38;;;10.61;80.01
62025;BME280;47978;49.118;12.146;2023-02-24T14:30:04;96140.22;;;10.50;78.75
62025;BME280;47978;49.118;12.146;2023-02-24T14:34:05;96128.16;;;10.54;79.42
62025;BME280;47978;49.118;12.146;2023-02-24T14:38:16;96116.00;;;10.68;78.51
62025;BME280;47978;49.118;12.146;2023-02-24T14:42:26;96105.88;;;10.72;78.01
62025;BME280;47978;49.118;12.146;2023-02-24T14:46:29;96104.47;;;10.66;78.01
62025;BME280;47978;49.118;12.146;2023-02-24T14:50:31;96100.13;;;10.77;77.76
62025;BME280;47978;49.118;12.146;2023-02-24T14:54:36;96093.72;;;10.52;78.61
62025;BME280;47978;49.118;12.146;2023-02-24T14:58:42;96087.84;;;10.53;78.51
62025;BME280;47978;49.118;12.146;2023-02-24T15:02:49;96080.50;;;10.70;79.09
62025;BME280;47978;49.118;12.146;2023-02-24T15:06:51;96079.13;;;10.64;78.06
62025;BME280;47978;49.118;12.146;2023-02-24T15:10:54;96069.81;;;10.68;78.60
62025;BME280;47978;49.118;12.146;2023-02-24T15:14:58;96067.38;;;10.67;77.28
62025;BME280;47978;49.118;12.146;2023-02-24T15:19:02;96056.28;;;10.54;77.46
62025;BME280;47978;49.118;12.146;2023-02-24T15:23:03;96050.81;;;10.33;77.83
62025;BME280;47978;49.118;12.146;2023-02-24T15:27:18;96050.75;;;10.00;78.17
62025;BME280;47978;49.118;12.146;2023-02-24T15:31:20;96047.72;;;9.93;79.06
62025;BME280;47978;49.118;12.146;2023-02-24T15:35:23;96037.22;;;9.86;79.71
62025;BME280;47978;49.118;12.146;2023-02-24T15:39:25;96030.84;;;9.74;80.22
62025;BME280;47978;49.118;12.146;2023-02-24T15:43:31;96036.88;;;9.67;80.36
62025;BME280;47978;49.118;12.146;2023-02-24T15:47:39;96038.13;;;9.57;80.40
62025;BME280;47978;49.118;12.146;2023-02-24T15:51:43;96039.59;;;9.55;80.68
62025;BME280;47978;49.118;12.146;2023-02-24T15:55:45;96030.75;;;9.61;80.42
62025;BME280;47978;49.118;12.146;2023-02-24T15:59:46;96023.03;;;9.55;80.82
62025;BME280;47978;49.118;12.146;2023-02-24T16:03:48;96022.28;;;9.45;81.09
62025;BME280;47978;49.118;12.146;2023-02-24T16:07:51;96015.50;;;9.43;80.96
62025;BME280;47978;49.118;12.146;2023-02-24T16:11:52;95998.59;;;9.44;80.88
62025;BME280;47978;49.118;12.146;2023-02-24T16:15:54;96002.69;;;9.38;81.23
62025;BME280;47978;49.118;12.146;2023-02-24T16:19:55;95998.81;;;9.39;81.37
62025;BME280;47978;49.118;12.146;2023-02-24T16:23:58;96005.94;;;9.40;81.47
62025;BME280;47978;49.118;12.146;2023-02-24T16:27:59;95994.59;;;9.33;81.43
62025;BME280;47978;49.118;12.146;2023-02-24T16:32:01;95980.34;;;9.31;81.62
62025;BME280;47978;49.118;12.146;2023-02-24T16:36:03;95978.28;;;9.28;81.89
62025;BME280;47978;49.118;12.146;2023-02-24T16:40:16;95973.38;;;9.34;81.52
62025;BME280;47978;49.118;12.146;2023-02-24T16:44:18;95978.88;;;9.34;81.86
62025;BME280;47978;49.118;12.146;2023-02-24T16:48:20;95969.78;;;9.33;81.84
62025;BME280;47978;49.118;12.146;2023-02-24T16:52:23;95976.81;;;9.31;81.70
62025;BME280;47978;49.118;12.146;2023-02-24T16:56:25;95974.56;;;9.24;82.16
62025;BME280;47978;49.118;12.146;2023-02-24T17:00:27;95973.63;;;9.20;81.94
62025;BME280;47978;49.118;12.146;2023-02-24T17:04:28;95969.22;;;9.19;82.18
62025;BME280;47978;49.118;12.146;2023-02-24T17:08:30;95978.72;;;9.09;82.77
62025;BME280;47978;49.118;12.146;2023-02-24T17:12:32;95976.75;;;9.10;82.75
62025;BME280;47978;49.118;12.146;2023-02-24T17:16:34;95973.69;;;9.11;82.98
62025;BME280;47978;49.118;12.146;2023-02-24T17:20:36;95978.84;;;9.13;83.02
62025;BME280;47978;49.118;12.146;2023-02-24T17:24:38;95974.81;;;9.10;82.74
62025;BME280;47978;49.118;12.146;2023-02-24T17:28:41;95968.41;;;8.97;80.00
62025;BME280;47978;49.118;12.146;2023-02-24T17:32:42;95969.88;;;8.95;77.64
62025;BME280;47978;49.118;12.146;2023-02-24T17:36:43;95962.47;;;8.87;77.02
62025;BME280;47978;49.118;12.146;2023-02-24T17:40:45;95961.56;;;8.74;77.14
62025;BME280;47978;49.118;12.146;2023-02-24T17:44:48;95949.31;;;8.63;77.02
62025;BME280;47978;49.118;12.146;2023-02-24T17:48:49;95947.53;;;8.58;77.01
62025;BME280;47978;49.118;12.146;2023-02-24T17:52:51;95937.19;;;8.55;76.62
62025;BME280;47978;49.118;12.146;2023-02-24T17:56:52;95939.16;;;8.46;76.77
62025;BME280;47978;49.118;12.146;2023-02-24T18:00:55;95940.94;;;8.42;76.63
62025;BME280;47978;49.118;12.146;2023-02-24T18:04:56;95957.31;;;8.38;76.50
62025;BME280;47978;49.118;12.146;2023-02-24T18:08:57;95957.50;;;8.24;76.71
62025;BME280;47978;49.118;12.146;2023-02-24T18:12:59;95956.03;;;8.36;76.79
62025;BME280;47978;49.118;12.146;2023-02-24T18:17:02;95934.69;;;8.24;77.09
62025;BME280;47978;49.118;12.146;2023-02-24T18:21:04;95933.19;;;8.35;76.36
62025;BME280;47978;49.118;12.146;2023-02-24T18:25:06;95928.00;;;8.33;76.34
62025;BME280;47978;49.118;12.146;2023-02-24T18:29:07;95926.88;;;8.34;76.31
62025;BME280;47978;49.118;12.146;2023-02-24T18:33:10;95928.34;;;8.32;76.78
62025;BME280;47978;49.118;12.146;2023-02-24T18:37:11;95929.00;;;8.29;77.05
62025;BME280;47978;49.118;12.146;2023-02-24T18:41:13;95927.06;;;8.29;77.28
62025;BME280;47978;49.118;12.146;2023-02-24T18:45:15;95920.22;;;8.36;77.58
62025;BME280;47978;49.118;12.146;2023-02-24T18:49:18;95907.09;;;8.32;77.93
62025;BME280;47978;49.118;12.146;2023-02-24T18:53:20;95905.69;;;8.26;78.53
62025;BME280;47978;49.118;12.146;2023-02-24T18:57:22;95906.66;;;8.22;78.62
62025;BME280;47978;49.118;12.146;2023-02-24T19:01:24;95910.75;;;8.16;78.80
62025;BME280;47978;49.118;12.146;2023-02-24T19:05:27;95902.81;;;8.14;78.79
62025;BME280;47978;49.118;12.146;2023-02-24T19:09:38;95888.56;;;8.12;78.13
62025;BME280;47978;49.118;12.146;2023-02-24T19:13:42;95887.91;;;8.15;78.26
62025;BME280;47978;49.118;12.146;2023-02-24T19:17:43;95872.84;;;8.13;78.61
62025;BME280;47978;49.118;12.146;2023-02-24T19:21:46;95890.19;;;8.13;79.84
62025;BME280;47978;49.118;12.146;2023-02-24T19:25:47;95896.19;;;8.06;81.21
62025;BME280;47978;49.118;12.146;2023-02-24T19:29:49;95892.66;;;8.06;81.88
62025;BME280;47978;49.118;12.146;2023-02-24T19:33:50;95910.03;;;7.89;81.08
62025;BME280;47978;49.118;12.146;2023-02-24T19:37:53;95914.09;;;7.74;81.06
62025;BME280;47978;49.118;12.146;2023-02-24T19:41:54;95918.47;;;7.66;80.73
62025;BME280;47978;49.118;12.146;2023-02-24T19:45:56;95906.69;;;7.57;80.67
62025;BME280;47978;49.118;12.146;2023-02-24T19:49:57;95893.88;;;7.61;82.29
62025;BME280;47978;49.118;12.146;2023-02-24T19:54:00;95896.81;;;7.56;84.43
62025;BME280;47978;49.118;12.146;2023-02-24T19:58:02;95904.13;;;7.43;85.89
62025;BME280;47978;49.118;12.146;2023-02-24T20:02:04;95912.19;;;7.49;86.10
62025;BME280;47978;49.118;12.146;2023-02-24T20:06:06;95904.59;;;7.37;82.23
62025;BME280;47978;49.118;12.146;2023-02-24T20:10:17;95902.69;;;7.29;80.05
62025;BME280;47978;49.118;12.146;2023-02-24T20:14:19;95898.63;;;7.26;79.18
62025;BME280;47978;49.118;12.146;2023-02-24T20:18:20;95898.94;;;7.16;78.50
62025;BME280;47978;49.118;12.146;2023-02-24T20:22:22;95898.63;;;7.17;78.42
62025;BME280;47978;49.118;12.146;2023-02-24T20:26:24;95892.31;;;7.17;78.34
62025;BME280;47978;49.118;12.146;2023-02-24T20:30:26;95895.53;;;7.10;76.47
62025;BME280;47978;49.118;12.146;2023-02-24T20:34:27;95893.44;;;6.90;76.44
62025;BME280;47978;49.118;12.146;2023-02-24T20:38:29;95884.56;;;6.93;75.13
62025;BME280;47978;49.118;12.146;2023-02-24T20:42:32;95887.16;;;6.89;72.96
62025;BME280;47978;49.118;12.146;2023-02-24T20:46:34;95895.69;;;6.88;71.65
62025;BME280;47978;49.118;12.146;2023-02-24T20:50:35;95895.81;;;6.65;71.51
62025;BME280;47978;49.118;12.146;2023-02-24T20:54:37;95895.03;;;6.73;70.84
62025;BME280;47978;49.118;12.146;2023-02-24T20:58:39;95901.16;;;6.62;70.68
62025;BME280;47978;49.118;12.146;2023-02-24T21:02:41;95899.84;;;6.59;72.30
62025;BME280;47978;49.118;12.146;2023-02-24T21:06:43;95913.09;;;6.66;71.64
62025;BME280;47978;49.118;12.146;2023-02-24T21:10:44;95915.16;;;6.51;70.19
62025;BME280;47978;49.118;12.146;2023-02-24T21:14:47;95910.78;;;6.42;70.69
62025;BME280;47978;49.118;12.146;2023-02-24T21:18:48;95934.03;;;6.36;70.50
62025;BME280;47978;49.118;12.146;2023-02-24T21:22:50;95920.91;;;6.24;71.15
62025;BME280;47978;49.118;12.146;2023-02-24T21:26:52;95937.78;;;6.08;72.34
62025;BME280;47978;49.118;12.146;2023-02-24T21:30:54;95946.34;;;6.07;73.06
62025;BME280;47978;49.118;12.146;2023-02-24T21:34:56;95956.25;;;5.94;72.82